Time;durP1;ratioP1;P1;durP2;ratioP2;P2;SDS_P1;SDS_P2;PMS_P1;PMS_P2;Temp;Humidity;BMP_temperature;BMP_pressure;BME280_temperature;BME280_humidity;BME280_pressure;Samples;Min_cycle;Max_cycle;Signal;HPM_P1;HPM_P2
2020/12/28 00:01:44;;;;;;;16.93;12.10;;;;;;;-0.09;67.30;101019.20;1682970;83;21163;-89
2020/12/28 00:04:12;;;;;;;17.13;11.33;;;;;;;-0.02;67.21;101007.34;1701500;82;21185;-86
2020/12/28 00:06:48;;;;;;;14.83;10.80;;;;;;;-0.04;67.26;101009.23;1697299;82;21305;-89
2020/12/28 00:09:16;;;;;;;20.40;13.25;;;;;;;-0.05;66.83;101004.47;1702848;81;21210;-88
2020/12/28 00:11:46;;;;;;;15.40;10.37;;;;;;;-0.06;66.93;101004.11;1700736;82;21199;-88
2020/12/28 00:14:15;;;;;;;15.93;11.67;;;;;;;-0.08;66.79;101002.52;1713189;82;21197;-85
2020/12/28 00:16:42;;;;;;;15.53;10.00;;;;;;;-0.08;66.76;100995.97;1689407;83;21320;-87
2020/12/28 00:19:13;;;;;;;16.50;10.10;;;;;;;-0.07;66.52;100989.31;1672646;82;21194;-86
2020/12/28 00:21:40;;;;;;;14.93;8.67;;;;;;;-0.08;66.28;100972.38;1680674;82;21248;-87
2020/12/28 00:24:08;;;;;;;14.93;10.90;;;;;;;-0.09;66.03;100993.83;1672285;83;21365;-85
2020/12/28 00:26:42;;;;;;;13.67;10.47;;;;;;;-0.05;65.59;100981.36;1701839;81;21255;-84
2020/12/28 00:29:10;;;;;;;14.90;9.67;;;;;;;-0.06;65.31;100982.29;1697858;81;21182;-86
2020/12/28 00:31:37;;;;;;;13.20;9.47;;;;;;;0.02;65.04;100977.83;1703561;81;21221;-85
2020/12/28 00:34:06;;;;;;;14.43;8.90;;;;;;;-0.03;64.83;100981.61;1690204;82;21327;-86
2020/12/28 00:36:33;;;;;;;12.27;9.40;;;;;;;0.04;64.40;100966.32;1724016;80;21144;-85
2020/12/28 00:39:02;;;;;;;14.90;10.80;;;;;;;0.03;64.37;100971.18;1719204;81;21175;-85
2020/12/28 00:41:31;;;;;;;13.70;9.27;;;;;;;0.08;64.25;100984.82;1753146;79;21167;-86
2020/12/28 00:43:58;;;;;;;15.60;10.83;;;;;;;0.07;63.93;100957.40;1708255;80;21249;-84
2020/12/28 00:46:29;;;;;;;17.60;8.60;;;;;;;0.08;63.74;100979.58;1732083;80;21356;-86
2020/12/28 00:49:00;;;;;;;16.10;10.57;;;;;;;0.02;63.65;100984.38;1724820;80;21183;-86
2020/12/28 00:51:27;;;;;;;20.10;11.53;;;;;;;0.10;63.84;100953.27;1735938;80;21659;-84
2020/12/28 00:53:55;;;;;;;13.80;9.83;;;;;;;0.03;63.85;100951.52;1724580;80;21192;-87
2020/12/28 00:56:23;;;;;;;13.70;9.67;;;;;;;0.04;63.83;100963.70;1711805;80;21167;-85
2020/12/28 00:58:50;;;;;;;16.70;10.17;;;;;;;-0.03;63.81;100966.36;1714409;80;21693;-86
2020/12/28 01:01:17;;;;;;;16.47;10.80;;;;;;;-0.03;63.77;100949.33;1728409;81;21216;-84
2020/12/28 01:03:44;;;;;;;20.87;12.17;;;;;;;-0.03;63.71;100950.64;1728026;81;21223;-85
2020/12/28 01:06:18;;;;;;;17.13;12.47;;;;;;;-0.02;63.75;100945.30;1740989;79;21282;-85
2020/12/28 01:08:48;;;;;;;15.83;10.67;;;;;;;0.07;63.85;100932.49;1734944;79;21187;-89
2020/12/28 01:11:21;;;;;;;17.83;10.43;;;;;;;0.09;63.71;100931.91;1714399;80;21183;-84
2020/12/28 01:13:49;;;;;;;19.53;12.57;;;;;;;0.10;63.57;100934.91;1717385;80;21294;-87
2020/12/28 01:16:16;;;;;;;15.37;11.83;;;;;;;0.09;63.78;100924.87;1747999;80;21186;-88
2020/12/28 01:18:44;;;;;;;19.17;12.43;;;;;;;0.12;63.63;100924.67;1761164;79;21128;-86
2020/12/28 01:21:21;;;;;;;19.27;13.77;;;;;;;0.15;63.58;100924.48;1748223;79;21691;-87
2020/12/28 01:23:51;;;;;;;17.70;11.93;;;;;;;0.11;63.66;100927.40;1749455;80;21342;-88
2020/12/28 01:26:20;;;;;;;19.30;12.67;;;;;;;0.15;63.68;100927.10;1743173;79;21679;-88
2020/12/28 01:28:50;;;;;;;17.07;11.03;;;;;;;0.17;63.72;100916.03;1742849;80;21614;-91
2020/12/28 01:31:21;;;;;;;17.00;12.40;;;;;;;0.18;63.65;100936.05;1757550;80;21646;-89
2020/12/28 01:34:11;;;;;;;15.65;10.95;;;;;;;0.25;63.62;100913.35;1744975;79;21162;-88
2020/12/28 01:36:44;;;;;;;16.43;11.83;;;;;;;0.16;63.92;100902.54;1751575;79;21112;-89
2020/12/28 01:39:17;;;;;;;18.00;12.27;;;;;;;0.24;63.74;100890.20;1736571;80;21195;-90
2020/12/28 01:41:45;;;;;;;19.20;11.60;;;;;;;0.21;63.78;100883.88;1723339;80;21232;-90
2020/12/28 01:44:14;;;;;;;18.00;10.97;;;;;;;0.18;63.92;100904.58;1758626;80;21429;-89
2020/12/28 01:46:43;;;;;;;19.47;10.60;;;;;;;0.15;64.04;100886.91;1752593;79;21203;-88
2020/12/28 01:49:12;;;;;;;16.10;12.13;;;;;;;0.15;64.12;100872.49;1713433;80;22398;-88
2020/12/28 01:51:43;;;;;;;19.60;11.00;;;;;;;0.16;63.99;100871.08;1737632;80;21193;-89
2020/12/28 01:54:11;;;;;;;16.90;13.00;;;;;;;0.07;64.37;100886.62;1731991;80;21160;-90
2020/12/28 01:56:40;;;;;;;19.90;11.70;;;;;;;0.09;64.26;100872.94;1746019;81;21155;-90
2020/12/28 01:59:09;;;;;;;21.87;12.70;;;;;;;0.05;64.49;100878.03;1765013;80;21180;-85
2020/12/28 02:01:41;;;;;;;17.37;12.00;;;;;;;0.09;64.56;100863.28;1742907;80;21314;-86
2020/12/28 02:04:11;;;;;;;16.87;9.40;;;;;;;0.06;64.66;100858.27;1750118;79;21951;-84
2020/12/28 02:07:07;;;;;;;17.23;11.27;;;;;;;0.15;64.56;100861.56;1794041;77;23463;-84
2020/12/28 02:09:34;;;;;;;16.23;10.20;;;;;;;0.17;64.28;100854.42;1711793;83;21172;-83
2020/12/28 02:12:03;;;;;;;14.13;9.60;;;;;;;0.11;64.40;100839.58;1676301;84;21205;-88
2020/12/28 02:14:32;;;;;;;17.10;9.37;;;;;;;0.15;64.22;100852.83;1704802;83;21368;-86
2020/12/28 02:17:21;;;;;;;18.43;11.17;;;;;;;0.13;64.30;100846.86;1678834;83;21342;-86
2020/12/28 02:19:51;;;;;;;18.13;10.83;;;;;;;0.17;64.30;100819.03;1611717;85;21192;-87
2020/12/28 02:22:21;;;;;;;17.00;11.87;;;;;;;0.14;64.45;100842.83;1707242;83;21559;-88
2020/12/28 02:24:50;;;;;;;13.93;10.03;;;;;;;0.16;64.39;100856.66;1711211;83;21241;-88
2020/12/28 02:27:18;;;;;;;18.20;11.53;;;;;;;0.15;64.55;100842.34;1682845;84;21160;-90
2020/12/28 02:29:47;;;;;;;15.53;10.27;;;;;;;0.19;64.36;100850.38;1653713;85;21225;-88
2020/12/28 02:32:16;;;;;;;14.50;9.00;;;;;;;0.12;64.58;100842.10;1675701;84;21261;-89
2020/12/28 02:35:20;;;;;;;21.77;11.10;;;;;;;0.23;64.63;100826.07;1791154;77;23201;-89
2020/12/28 02:37:53;;;;;;;18.70;11.37;;;;;;;-0.37;64.48;100729.44;1724070;81;21434;-90
2020/12/28 02:40:28;;;;;;;17.05;11.38;;;;;;;0.22;64.62;100838.35;1701847;82;21365;-91
2020/12/28 02:42:57;;;;;;;16.77;9.50;;;;;;;0.22;64.52;100844.08;1725697;82;21337;-92
2020/12/28 02:45:45;;;;;;;21.77;11.22;;;;;;;0.12;64.95;100835.55;1711105;81;21211;-90
2020/12/28 02:48:33;;;;;;;20.03;11.63;;;;;;;-0.05;64.79;100803.14;1724375;81;21345;-88
2020/12/28 02:51:18;;;;;;;18.73;11.70;;;;;;;0.18;64.90;100832.97;1736315;81;21179;-90
2020/12/28 02:54:12;;;;;;;20.80;12.20;;;;;;;0.15;64.86;100837.96;1735803;81;21348;-91
2020/12/28 02:57:02;;;;;;;14.50;10.50;;;;;;;0.22;64.82;100848.84;1889803;74;22855;-91
2020/12/28 02:59:34;;;;;;;17.70;11.33;;;;;;;0.14;65.03;100831.03;1835944;75;21735;-87
2020/12/28 03:02:22;;;;;;;19.00;11.67;;;;;;;0.19;65.07;100828.09;1831948;77;21164;-90
2020/12/28 03:05:08;;;;;;;25.08;12.78;;;;;;;0.19;65.04;100830.23;1855562;75;21409;-90
2020/12/28 03:07:54;;;;;;;28.40;13.67;;;;;;;0.19;65.34;100826.79;1818801;78;21139;-89
2020/12/28 03:10:41;;;;;;;25.00;13.32;;;;;;;0.24;65.12;100824.66;1809704;77;21158;-91
2020/12/28 03:13:29;;;;;;;29.77;11.88;;;;;;;0.19;65.26;100824.17;1825256;77;21641;-92
2020/12/28 03:16:16;;;;;;;22.63;11.20;;;;;;;0.15;65.22;100815.68;1828686;77;21163;-90
2020/12/28 03:19:01;;;;;;;22.50;12.83;;;;;;;0.25;65.20;100829.45;1826617;77;21161;-91
2020/12/28 03:21:48;;;;;;;21.13;11.80;;;;;;;0.21;65.29;100822.72;1834453;77;21179;-91
2020/12/28 03:24:36;;;;;;;25.20;12.83;;;;;;;0.17;65.45;100836.52;1843825;77;21122;-90
2020/12/28 03:27:29;;;;;;;25.63;12.30;;;;;;;0.21;65.50;100812.23;1839701;76;21139;-89
2020/12/28 03:30:30;;;;;;;24.73;12.67;;;;;;;0.23;65.34;100829.55;1838207;77;21110;-88
2020/12/28 03:33:19;;;;;;;21.60;10.37;;;;;;;0.23;65.52;100816.89;1787464;77;21127;-90
2020/12/28 03:36:26;;;;;;;18.30;12.82;;;;;;;0.32;65.42;100812.30;1774478;76;28075;-90
2020/12/28 03:39:14;;;;;;;32.37;13.83;;;;;;;0.39;64.78;100804.36;1702790;82;21397;-91
2020/12/28 03:42:01;;;;;;;63.30;21.12;;;;;;;0.22;64.58;100765.42;1703719;82;21265;-89
2020/12/28 03:44:51;;;;;;;59.47;23.27;;;;;;;0.47;64.70;100803.80;1708104;80;21232;-93
2020/12/28 03:47:37;;;;;;;46.17;18.20;;;;;;;0.47;64.85;100815.16;1730882;80;21179;-91
2020/12/28 03:50:38;;;;;;;45.77;18.00;;;;;;;0.51;64.94;100797.38;1779205;79;23114;-91
2020/12/28 03:53:25;;;;;;;73.05;25.48;;;;;;;0.51;64.81;100798.23;1780172;78;21173;-89
2020/12/28 03:56:14;;;;;;;28.67;14.77;;;;;;;0.42;65.13;100800.22;1742691;80;21215;-86
2020/12/28 03:59:02;;;;;;;31.33;13.40;;;;;;;0.45;65.02;100800.45;1703111;81;21174;-91
2020/12/28 04:01:51;;;;;;;31.13;16.70;;;;;;;0.45;65.21;100810.47;1737818;81;21187;-90
2020/12/28 04:04:40;;;;;;;17.77;11.23;;;;;;;0.45;65.26;100777.68;1679908;83;21177;-91
2020/12/28 04:07:40;;;;;;;20.43;13.27;;;;;;;0.45;65.30;100775.54;1764991;78;23969;-91
2020/12/28 04:10:30;;;;;;;26.77;13.83;;;;;;;0.42;65.29;100777.92;1752216;79;21337;-90
2020/12/28 04:13:37;;;;;;;25.43;12.63;;;;;;;0.43;65.47;100776.95;1809608;78;21715;-90
2020/12/28 04:16:07;;;;;;;46.17;17.53;;;;;;;0.34;65.53;100764.06;1786594;80;21683;-84
2020/12/28 04:18:34;;;;;;;47.33;20.70;;;;;;;0.31;65.87;100756.89;1763474;80;21339;-83
2020/12/28 04:21:01;;;;;;;;;;;;;;;0.34;65.87;100763.20;1768227;80;21658;-87
2020/12/28 04:26:40;;;;;;;70.00;23.20;;;;;;;0.42;66.07;100763.50;1837048;76;23032;-87
2020/12/28 04:29:15;;;;;;;64.90;23.17;;;;;;;0.36;66.06;100770.03;1824276;77;21379;-90
2020/12/28 04:31:46;;;;;;;60.87;22.23;;;;;;;0.37;66.05;100768.23;1789609;77;21769;-90
2020/12/28 04:34:16;;;;;;;41.23;18.63;;;;;;;0.42;66.00;100762.67;1810196;77;21193;-90
2020/12/28 04:36:45;;;;;;;95.33;30.53;;;;;;;0.41;66.10;100731.66;1687356;80;21144;-90
2020/12/28 04:39:15;;;;;;;57.47;20.83;;;;;;;0.41;66.17;100753.11;1694087;83;21183;-86
2020/12/28 04:41:41;;;;;;;48.90;18.47;;;;;;;0.45;65.97;100751.94;1702056;84;21163;-86
2020/12/28 04:44:08;;;;;;;;;;;;;;;0.38;66.05;100760.74;1700634;82;21354;-89
2020/12/28 04:46:36;;;;;;;38.13;16.30;;;;;;;0.47;65.91;100724.66;1670771;84;20516;-85
2020/12/28 04:49:03;;;;;;;57.83;21.20;;;;;;;0.30;66.29;100719.80;1675703;85;21243;-83
2020/12/28 04:51:30;;;;;;;86.83;26.87;;;;;;;0.37;66.20;100725.80;1675109;84;21253;-82
2020/12/28 04:53:58;;;;;;;94.30;28.80;;;;;;;0.37;66.20;100744.63;1647819;85;21245;-85
2020/12/28 04:56:25;;;;;;;94.37;30.33;;;;;;;0.40;66.16;100711.64;1670181;83;21201;-83
2020/12/28 04:58:55;;;;;;;97.03;28.30;;;;;;;0.19;65.92;100707.50;1668974;84;21371;-87
2020/12/28 05:01:22;;;;;;;92.47;29.10;;;;;;;0.38;66.09;100737.14;1684813;83;21330;-85
2020/12/28 05:03:49;;;;;;;85.87;26.53;;;;;;;0.37;66.11;100731.04;1673498;81;21154;-87
2020/12/28 05:06:17;;;;;;;87.47;28.40;;;;;;;0.37;66.00;100739.39;1696194;80;21115;-84
2020/12/28 05:08:45;;;;;;;62.07;21.80;;;;;;;0.44;65.84;100733.23;1664923;85;21225;-88
2020/12/28 05:11:14;;;;;;;102.03;27.07;;;;;;;0.42;65.74;100722.84;1666154;84;21208;-85
2020/12/28 05:13:51;;;;;;;77.40;25.97;;;;;;;0.43;65.68;100711.39;1658305;85;21169;-88
2020/12/28 05:16:18;;;;;;;68.77;21.70;;;;;;;0.38;65.85;100724.86;1648495;85;21354;-88
2020/12/28 05:18:54;;;;;;;80.77;24.43;;;;;;;0.42;65.68;100737.27;1677384;84;21639;-93
2020/12/28 05:21:27;;;;;;;70.40;22.07;;;;;;;0.40;65.79;100728.69;1689771;84;21345;-89
2020/12/28 05:23:55;;;;;;;78.83;21.83;;;;;;;0.36;65.79;100728.55;1662221;85;21691;-89
2020/12/28 05:26:24;;;;;;;75.37;22.43;;;;;;;0.41;65.50;100723.78;1663220;85;21193;-87
2020/12/28 05:28:54;;;;;;;35.47;14.30;;;;;;;0.36;65.57;100723.31;1686533;83;21206;-88
2020/12/28 05:31:22;;;;;;;89.53;26.23;;;;;;;0.32;65.86;100708.72;1685985;83;21196;-89
2020/12/28 05:33:49;;;;;;;89.13;27.27;;;;;;;0.39;65.64;100741.42;1691157;83;21192;-90
2020/12/28 05:36:17;;;;;;;76.37;23.90;;;;;;;-0.39;65.69;100592.04;1658385;84;21092;-87
2020/12/28 05:38:45;;;;;;;66.43;20.50;;;;;;;0.34;65.75;100709.45;1660020;85;21187;-88
2020/12/28 05:41:16;;;;;;;83.13;25.20;;;;;;;0.35;65.56;100687.05;1677321;84;21433;-86
2020/12/28 05:43:43;;;;;;;58.17;21.50;;;;;;;0.38;65.64;100726.17;1635291;85;21250;-89
2020/12/28 05:46:24;;;;;;;71.80;22.83;;;;;;;0.42;65.47;100743.00;1661673;85;21211;-88
2020/12/28 05:48:55;;;;;;;62.73;23.43;;;;;;;0.44;65.57;100760.77;1668197;82;21312;-83
2020/12/28 05:51:38;;;;;;;43.67;19.80;;;;;;;0.49;65.10;100735.02;1772543;77;24302;-86
2020/12/28 05:54:10;;;;;;;73.77;23.43;;;;;;;0.47;65.25;100740.86;1734390;81;21205;-84
2020/12/28 05:56:42;;;;;;;79.03;27.03;;;;;;;0.46;65.34;100724.77;1743597;81;21176;-86
2020/12/28 05:59:11;;;;;;;94.03;26.17;;;;;;;0.45;65.57;100739.65;1739770;81;21148;-86
2020/12/28 06:01:43;;;;;;;83.20;25.27;;;;;;;0.49;65.46;100739.81;1739672;81;21213;-90
2020/12/28 06:04:13;;;;;;;100.13;28.80;;;;;;;0.49;65.67;100736.33;1732573;81;21177;-87
2020/12/28 06:06:42;;;;;;;75.20;28.20;;;;;;;0.52;65.55;100721.69;1723471;81;21092;-84
2020/12/28 06:09:13;;;;;;;95.27;30.63;;;;;;;0.47;65.89;100741.72;1730187;81;21100;-85
2020/12/28 06:11:40;;;;;;;83.00;25.67;;;;;;;0.52;65.85;100748.75;1733688;81;21265;-87
2020/12/28 06:14:17;;;;;;;66.00;26.10;;;;;;;0.42;66.12;100724.64;1720718;81;21139;-89
2020/12/28 06:16:44;;;;;;;87.70;26.37;;;;;;;0.47;65.91;100744.34;1711675;82;21171;-88
2020/12/28 06:19:24;;;;;;;86.07;29.23;;;;;;;0.45;66.03;100720.47;1709997;82;21226;-87
2020/12/28 06:21:51;;;;;;;71.10;27.60;;;;;;;0.39;66.16;100719.95;1698706;82;21325;-86
2020/12/28 06:24:33;;;;;;;51.07;21.60;;;;;;;0.44;66.23;100731.92;1715278;82;21278;-86
2020/12/28 06:27:37;;;;;;;53.93;22.40;;;;;;;0.44;66.41;100713.08;1812754;78;23645;-87
2020/12/28 06:30:16;;;;;;;75.43;26.63;;;;;;;0.46;66.21;100741.82;1775903;80;21193;-87
2020/12/28 06:32:52;;;;;;;64.27;26.53;;;;;;;0.43;66.37;100748.59;1775042;80;21213;-88
2020/12/28 06:35:20;;;;;;;57.40;23.07;;;;;;;0.07;66.61;100675.13;1776944;79;21263;-88
2020/12/28 06:37:53;;;;;;;82.63;29.00;;;;;;;0.32;67.13;100733.64;1675190;81;21258;-95
2020/12/28 06:40:35;;;;;;;90.77;30.15;;;;;;;0.33;67.84;100724.83;1746250;81;21654;-95
2020/12/28 06:43:22;;;;;;;77.13;29.80;;;;;;;0.27;68.21;100736.61;1720522;83;21299;-94
2020/12/28 06:46:23;;;;;;;111.87;34.03;;;;;;;-0.07;69.03;100674.02;1703976;81;21156;-93
2020/12/28 06:49:00;;;;;;;53.87;23.30;;;;;;;0.11;69.17;100707.20;1718045;81;21208;-93
2020/12/28 06:51:42;;;;;;;37.87;20.87;;;;;;;0.04;69.28;100726.48;1729236;81;21224;-93
2020/12/28 06:54:51;;;;;;;62.17;25.00;;;;;;;0.01;69.39;100712.77;1693786;83;21213;-93
2020/12/28 06:58:04;;;;;;;61.23;22.53;;;;;;;0.06;69.52;100699.69;1723615;82;21342;-93
2020/12/28 07:01:15;;;;;;;45.50;21.57;;;;;;;0.02;69.54;100707.87;1725883;82;21205;-96
2020/12/28 07:04:12;;;;;;;66.37;26.30;;;;;;;0.01;69.29;100708.35;1700589;83;21193;-94
2020/12/28 07:07:15;;;;;;;55.70;26.17;;;;;;;-0.05;69.79;100709.63;1697793;82;21079;-93
2020/12/28 07:10:30;;;;;;;43.93;22.57;;;;;;;-0.02;69.78;100691.53;1717834;82;21340;-94
2020/12/28 07:13:10;;;;;;;29.33;18.60;;;;;;;-0.01;69.61;100691.91;1698547;82;21232;-94
2020/12/28 07:15:52;;;;;;;31.53;18.97;;;;;;;0.08;69.35;100694.34;1808214;76;22894;-92
2020/12/28 07:18:42;;;;;;;30.50;15.80;;;;;;;-0.01;69.72;100684.05;1793698;76;21119;-96
2020/12/28 07:21:46;;;;;;;46.05;23.05;;;;;;;-0.01;69.26;100692.73;1784872;79;21183;-96
2020/12/28 07:24:46;;;;;;;57.67;25.30;;;;;;;0.05;69.25;100667.86;1794762;80;21162;-93
2020/12/28 07:27:58;;;;;;;;;;;;;;;;;;;;;
2020/12/28 07:31:04;;;;;;;44.90;21.17;;;;;;;-0.02;68.50;100667.48;1700518;81;21175;-89
2020/12/28 07:38:02;;;;;;;68.83;26.73;;;;;;;-1.06;68.55;100510.84;1710902;82;21283;-93
2020/12/28 07:41:06;;;;;;;38.90;20.57;;;;;;;0.07;68.21;100660.72;1669319;83;21166;-92
2020/12/28 07:43:38;;;;;;;38.43;18.20;;;;;;;0.06;67.92;100665.61;1684528;84;21157;-92
2020/12/28 07:46:58;;;;;;;;;;;;;;;;;;;;;
2020/12/28 07:49:49;;;;;;;79.50;28.13;;;;;;;0.18;67.88;100681.73;1722738;81;21624;-93
2020/12/28 07:53:15;;;;;;;;;;;;;;;;;;;;;
2020/12/28 07:57:06;;;;;;;81.63;30.50;;;;;;;0.04;66.83;100616.41;1786400;78;23079;-91
2020/12/28 08:00:09;;;;;;;104.63;33.63;;;;;;;0.25;67.11;100709.67;1772823;79;21113;-96
2020/12/28 08:03:43;;;;;;;81.45;28.80;;;;;;;0.19;66.98;100691.29;1758165;80;21148;-94
2020/12/28 08:06:51;;;;;;;71.43;24.43;;;;;;;0.25;66.92;100672.96;1697132;79;21164;-92
2020/12/28 08:10:00;;;;;;;39.67;20.70;;;;;;;0.24;66.58;100659.95;1708458;82;21290;-93
2020/12/28 08:13:07;;;;;;;60.10;20.83;;;;;;;0.31;66.33;100653.31;1713190;82;21290;-94
2020/12/28 08:16:01;;;;;;;62.85;25.85;;;;;;;0.29;66.41;100640.80;1729046;81;21105;-88
2020/12/28 08:18:54;;;;;;;54.80;19.13;;;;;;;0.33;66.57;100642.23;1723422;82;21191;-93
2020/12/28 08:22:30;;;;;;;62.20;25.23;;;;;;;0.26;66.40;100638.39;1741563;82;21123;-95
2020/12/28 08:44:49;;;;;;;84.37;27.93;;;;;;;0.25;67.03;100641.50;1667323;83;22373;-91
2020/12/28 08:47:34;;;;;;;70.83;31.42;;;;;;;0.25;67.25;100639.36;1780473;78;28888;-91
2020/12/28 08:50:38;;;;;;;;;;;;;;;;;;;;;
2020/12/28 08:53:26;;;;;;;88.87;27.60;;;;;;;0.59;66.02;100636.34;1764605;79;22911;-95
2020/12/28 08:56:09;;;;;;;108.30;31.53;;;;;;;0.50;66.11;100639.66;1768829;80;21125;-93
2020/12/28 08:59:07;;;;;;;63.60;24.37;;;;;;;0.51;66.20;100634.75;1777053;80;21156;-91
2020/12/28 09:05:52;;;;;;;;;;;;;;;;;;;;;
2020/12/28 09:09:02;;;;;;;82.70;27.83;;;;;;;0.56;65.83;100628.69;1756742;78;21120;-93
2020/12/28 09:39:20;;;;;;;45.20;19.63;;;;;;;0.64;66.04;100549.41;1599678;86;21403;-91
2020/12/28 09:48:56;;;;;;;77.80;25.40;;;;;;;0.73;66.11;100553.94;1603284;86;21197;-90
2020/12/28 09:51:57;;;;;;;;;;;;;;;0.81;66.08;100526.64;1594710;88;21278;-91
2020/12/28 09:55:20;;;;;;;36.17;14.40;;;;;;;0.85;66.05;100521.50;1580524;87;20245;-93
2020/12/28 09:58:50;;;;;;;;;;;;;;;;;;;;;
2020/12/28 10:01:48;;;;;;;51.93;21.23;;;;;;;0.77;67.04;100558.84;1549098;88;21917;-91
2020/12/28 10:07:51;;;;;;;80.67;26.90;;;;;;;0.78;67.47;100534.25;1596016;88;21239;-95
2020/12/28 10:23:57;;;;;;;40.43;19.20;;;;;;;0.91;67.22;100485.58;1703816;82;21210;-95
2020/12/28 10:26:33;;;;;;;54.53;21.03;;;;;;;0.82;67.04;100507.78;1788197;79;21097;-86
2020/12/28 10:29:37;;;;;;;68.63;23.80;;;;;;;0.77;67.37;100497.63;1717864;79;21206;-91
2020/12/28 10:52:34;;;;;;;26.03;15.17;;;;;;;0.53;69.70;100476.33;1781396;79;21188;-94
2020/12/28 10:58:38;;;;;;;21.37;16.10;;;;;;;0.50;70.25;100437.21;1632645;84;21152;-95
2020/12/28 11:02:18;;;;;;;21.80;13.00;;;;;;;0.53;70.21;100469.77;1721805;81;21231;-94
2020/12/28 11:05:41;;;;;;;26.83;18.10;;;;;;;0.49;70.38;100457.00;1693963;81;21142;-90
2020/12/28 11:15:33;;;;;;;43.50;20.67;;;;;;;0.54;70.53;100438.63;1743760;79;21161;-94
2020/12/28 11:18:42;;;;;;;60.47;22.60;;;;;;;0.52;70.77;100435.30;1762921;79;21128;-95
2020/12/28 11:21:14;;;;;;;70.67;24.50;;;;;;;0.51;71.16;100423.16;1783020;79;21093;-92
2020/12/28 11:24:06;;;;;;;57.20;22.77;;;;;;;0.55;71.02;100419.81;1783460;79;21149;-95
2020/12/28 11:27:05;;;;;;;41.93;20.37;;;;;;;0.55;70.96;100410.64;1728591;80;21251;-93
2020/12/28 11:29:39;;;;;;;36.73;20.13;;;;;;;0.58;70.73;100436.15;1792185;78;21124;-96
2020/12/28 11:32:46;;;;;;;35.43;16.27;;;;;;;0.62;70.62;100404.41;1782590;78;21139;-94
2020/12/28 11:35:38;;;;;;;30.77;17.77;;;;;;;0.56;70.84;100397.38;1729621;81;21094;-92
2020/12/28 11:38:18;;;;;;;32.57;19.63;;;;;;;0.57;70.93;100386.42;1721351;80;21160;-93
2020/12/28 11:41:20;;;;;;;31.20;19.23;;;;;;;0.55;71.08;100388.34;1735645;81;21440;-92
2020/12/28 11:44:43;;;;;;;30.97;19.43;;;;;;;0.53;71.24;100383.21;1709390;83;21139;-91
2020/12/28 11:47:50;;;;;;;;;;;;;;;0.54;71.37;100385.34;1729098;81;21168;-92
2020/12/28 11:50:49;;;;;;;33.37;19.17;;;;;;;0.52;71.31;100382.84;1689106;83;20189;-94
2020/12/28 11:54:06;;;;;;;29.90;18.12;;;;;;;0.49;71.54;100386.19;1703626;81;21147;-92
2020/12/28 11:57:16;;;;;;;28.30;18.50;;;;;;;0.43;72.07;100339.48;1737142;82;21120;-95
2020/12/28 12:00:52;;;;;;;35.43;21.47;;;;;;;0.47;72.02;100343.06;1715037;81;21173;-94
2020/12/28 12:04:01;;;;;;;32.87;17.57;;;;;;;0.49;72.23;100320.62;1715726;81;21342;-93
2020/12/28 12:07:24;;;;;;;41.13;22.03;;;;;;;0.46;72.67;100329.58;1733068;79;21137;-93
2020/12/28 12:10:43;;;;;;;30.83;18.40;;;;;;;0.48;72.59;100326.34;1720059;81;21267;-95
2020/12/28 12:17:03;;;;;;;;;;;;;;;0.53;72.84;100342.55;1558763;89;21240;-94
2020/12/28 12:19:37;;;;;;;30.55;18.45;;;;;;;0.54;72.92;100340.27;1542701;91;20198;-93
2020/12/28 12:22:10;;;;;;;40.60;19.63;;;;;;;0.66;72.63;100340.23;1489161;94;21326;-94
2020/12/28 12:24:42;;;;;;;51.43;22.10;;;;;;;0.53;73.47;100344.36;1550628;91;21236;-94
2020/12/28 12:27:31;;;;;;;51.17;23.30;;;;;;;0.48;73.72;100348.64;1512362;93;21351;-93
2020/12/28 12:30:33;;;;;;;86.90;30.77;;;;;;;0.63;73.60;100337.39;1561772;91;21339;-93
2020/12/28 12:34:16;;;;;;;;;;;;;;;;;;;;;
2020/12/28 12:37:12;;;;;;;84.40;32.93;;;;;;;0.61;74.03;100355.54;1536772;87;21178;-93
2020/12/28 12:40:19;;;;;;;88.93;35.57;;;;;;;0.58;73.98;100325.98;1548627;88;21192;-92
2020/12/28 12:43:28;;;;;;;88.60;31.00;;;;;;;0.68;74.09;100344.88;1474397;91;21196;-86
2020/12/28 12:46:14;;;;;;;71.30;28.20;;;;;;;0.68;74.25;100340.94;1551622;87;22178;-92
2020/12/28 12:49:14;;;;;;;74.20;30.33;;;;;;;0.82;74.05;100339.36;1551016;87;21319;-94
2020/12/28 12:51:46;;;;;;;76.27;32.37;;;;;;;0.84;74.11;100340.06;1552345;91;21293;-93
2020/12/28 12:54:20;;;;;;;62.67;23.93;;;;;;;0.75;74.35;100356.09;1537088;91;21761;-91
2020/12/28 12:56:58;;;;;;;89.67;34.00;;;;;;;0.65;74.83;100373.52;1541098;91;21243;-93
2020/12/28 12:59:31;;;;;;;77.07;31.40;;;;;;;0.78;74.58;100334.01;1540506;92;21820;-95
2020/12/28 13:02:27;;;;;;;87.90;31.97;;;;;;;0.72;74.59;100335.83;1543419;92;21303;-94
2020/12/28 13:05:04;;;;;;;96.37;35.00;;;;;;;0.63;74.83;100343.95;1517099;93;22062;-94
2020/12/28 13:07:37;;;;;;;73.07;30.37;;;;;;;0.69;74.79;100337.38;1511746;93;21250;-92
2020/12/28 13:10:11;;;;;;;102.27;38.30;;;;;;;0.75;74.77;100338.18;1544121;91;21659;-94
2020/12/28 13:12:43;;;;;;;88.23;33.20;;;;;;;0.67;75.04;100365.53;1532662;93;21236;-92
2020/12/28 13:15:32;;;;;;;70.28;30.65;;;;;;;0.62;75.19;100350.14;1490845;91;21240;-92
2020/12/28 13:18:43;;;;;;;72.23;30.53;;;;;;;0.77;74.73;100383.50;1542513;91;21244;-95
2020/12/28 13:21:14;;;;;;;101.53;33.63;;;;;;;0.72;74.65;100338.45;1554359;91;21330;-94
2020/12/28 13:23:57;;;;;;;68.20;26.80;;;;;;;0.63;75.01;100330.02;1556092;91;21228;-95
2020/12/28 13:26:30;;;;;;;56.73;27.43;;;;;;;0.69;74.90;100325.57;1548653;91;21223;-94
2020/12/28 13:29:40;;;;;;;81.10;34.17;;;;;;;0.68;74.61;100371.97;1498387;92;21277;-92
2020/12/28 13:32:17;;;;;;;86.47;31.70;;;;;;;0.56;74.95;100350.16;1513415;91;21186;-94
2020/12/28 13:35:09;;;;;;;71.27;30.83;;;;;;;0.56;75.17;100344.09;1535176;89;21191;-95
2020/12/28 13:38:40;;;;;;;59.13;24.43;;;;;;;0.55;75.06;100343.27;1527747;93;21211;-92
2020/12/28 13:41:25;;;;;;;81.90;33.97;;;;;;;0.46;75.58;100354.48;1503207;94;21292;-95
2020/12/28 13:44:11;;;;;;;86.10;36.23;;;;;;;0.60;75.14;100350.75;1502720;94;22003;-95
2020/12/28 13:47:12;;;;;;;85.70;31.63;;;;;;;0.63;74.99;100350.52;1526409;89;21238;-93
2020/12/28 13:50:13;;;;;;;89.60;33.13;;;;;;;0.63;74.81;100352.31;1526626;89;21169;-93
2020/12/28 13:53:19;;;;;;;69.80;28.67;;;;;;;0.55;75.14;100344.58;1527755;93;21420;-94
2020/12/28 13:56:12;;;;;;;84.85;34.23;;;;;;;0.66;74.80;100334.53;1551270;91;21634;-96
2020/12/28 13:59:21;;;;;;;73.87;29.60;;;;;;;0.70;74.57;100343.81;1560341;91;21164;-91
2020/12/28 14:02:44;;;;;;;63.43;30.70;;;;;;;0.58;74.76;100339.09;1524205;89;21267;-95
2020/12/28 14:06:05;;;;;;;105.57;36.27;;;;;;;0.55;75.01;100355.06;1556003;87;21127;-95
2020/12/28 14:09:13;;;;;;;97.20;36.57;;;;;;;0.66;74.41;100319.25;1553423;91;21236;-88
2020/12/28 14:11:48;;;;;;;71.47;30.40;;;;;;;0.63;74.41;100314.27;1532664;91;21178;-89
2020/12/28 14:14:15;;;;;;;57.00;23.70;;;;;;;0.56;74.46;100307.37;1554319;91;21262;-87
2020/12/28 14:16:42;;;;;;;53.83;25.13;;;;;;;0.58;74.41;100319.88;1550373;90;21242;-90
2020/12/28 14:19:12;;;;;;;45.73;21.60;;;;;;;0.64;74.00;100299.73;1539107;91;21214;-87
2020/12/28 14:21:39;;;;;;;92.17;34.83;;;;;;;0.63;74.06;100323.45;1531405;91;21210;-89
2020/12/28 14:24:06;;;;;;;55.70;26.30;;;;;;;0.50;74.31;100300.83;1539266;91;21266;-88
2020/12/28 14:26:35;;;;;;;41.70;20.57;;;;;;;0.56;74.12;100297.70;1494335;94;21303;-89
2020/12/28 14:31:47;;;;;;;37.57;18.80;;;;;;;0.59;73.90;100287.45;1749385;79;23667;-88
2020/12/28 14:34:15;;;;;;;33.93;18.83;;;;;;;0.52;73.96;100287.59;1710711;82;21607;-90
2020/12/28 14:36:48;;;;;;;30.03;16.90;;;;;;;0.62;73.82;100271.45;1689764;82;21098;-90
2020/12/28 14:39:17;;;;;;;44.93;20.37;;;;;;;0.60;73.68;100298.77;1618402;87;21232;-90
2020/12/28 14:41:44;;;;;;;36.20;18.20;;;;;;;0.56;73.81;100308.68;1629887;87;21648;-89
2020/12/28 14:44:11;;;;;;;69.30;24.87;;;;;;;0.55;73.83;100301.30;1651378;85;21218;-91